createdAt,value
2023-02-23T00:00:24.375Z,42.1
2023-02-23T00:02:26.109Z,41.8
2023-02-23T00:04:30.439Z,43.3
2023-02-23T00:06:32.171Z,43.1
2023-02-23T00:08:33.943Z,41.8
2023-02-23T00:10:38.450Z,41.5
2023-02-23T00:14:42.032Z,43.9
2023-02-23T00:31:51.973Z,41.4
2023-02-23T00:33:53.612Z,40
2023-02-23T00:35:57.979Z,38.7
2023-02-23T00:37:59.702Z,42.5
2023-02-23T00:40:01.383Z,41.1
2023-02-23T00:42:05.748Z,40.9
2023-02-23T00:44:07.552Z,38.6
2023-02-23T00:46:09.372Z,40.2
2023-02-23T00:57:10.941Z,37.3
2023-02-23T00:59:12.629Z,36.6
2023-02-23T01:01:17.523Z,39.4
2023-02-23T01:03:18.716Z,36.7
2023-02-23T01:05:20.412Z,35.8
2023-02-23T01:11:28.146Z,36.2
2023-02-23T01:13:32.505Z,38.7
2023-02-23T01:19:40.291Z,37.7
2023-02-23T01:25:48.068Z,36.4
2023-02-23T01:33:57.556Z,35.4
2023-02-23T01:42:07.070Z,34.3
2023-02-23T01:44:11.561Z,33.9
2023-02-23T01:54:23.084Z,36.1
2023-02-23T01:59:33.244Z,34.8
2023-02-23T02:01:34.996Z,33.3
2023-02-23T02:03:36.640Z,35.2
2023-02-23T02:05:41.095Z,34.3
2023-02-23T02:09:44.507Z,32.4
2023-02-23T02:16:58.361Z,34.6
2023-02-23T02:19:00.145Z,30.2
2023-02-23T02:21:04.656Z,30.3
2023-02-23T02:23:06.396Z,33.3
2023-02-23T02:25:08.339Z,31.3
2023-02-23T02:27:12.658Z,31.7
2023-02-23T02:29:14.444Z,31
2023-02-23T02:31:16.380Z,29.3
2023-02-23T02:33:20.710Z,30.2
2023-02-23T02:35:22.509Z,29.8
2023-02-23T02:37:24.276Z,29
2023-02-23T02:39:28.748Z,29.6
2023-02-23T02:41:30.442Z,29.8
2023-02-23T02:43:32.193Z,31.1
2023-02-23T02:58:56.912Z,30.6
2023-02-23T03:01:01.299Z,28.8
2023-02-23T03:05:04.693Z,27.2
2023-02-23T03:07:09.053Z,28.7
2023-02-23T03:09:10.835Z,31.2
2023-02-23T03:11:12.520Z,29
2023-02-23T03:13:23.101Z,27.8
2023-02-23T03:17:26.615Z,29
2023-02-23T03:29:42.373Z,31.7
2023-02-23T03:31:46.820Z,31.1
2023-02-23T03:33:48.503Z,31.4
2023-02-23T03:35:50.211Z,31.2
2023-02-23T03:37:54.698Z,34.8
2023-02-23T03:39:56.495Z,32.6
2023-02-23T03:44:02.739Z,32.3
2023-02-23T03:46:04.579Z,34.3
2023-02-23T03:48:06.307Z,33.6
2023-02-23T03:50:10.798Z,33.4
2023-02-23T03:52:12.595Z,30.8
2023-02-23T03:54:14.356Z,32.7
2023-02-23T03:56:18.815Z,33.5
2023-02-23T03:58:21.351Z,31.2
2023-02-23T04:00:22.184Z,32.5
2023-02-23T04:04:28.317Z,34.3
2023-02-23T04:06:30.111Z,33.3
2023-02-23T04:08:34.562Z,34.1
2023-02-23T04:10:36.382Z,33.7
2023-02-23T04:12:38.163Z,33.1
2023-02-23T04:14:42.527Z,32.4
2023-02-23T04:20:50.629Z,31.6
2023-02-23T04:26:58.608Z,33.3
2023-02-23T04:29:00.106Z,33.3
2023-02-23T04:31:01.882Z,31.4
2023-02-23T04:35:07.949Z,36.1
2023-02-23T04:37:09.648Z,32.7
2023-02-23T04:43:17.627Z,35.2
2023-02-23T04:45:22.070Z,33.8
2023-02-23T04:49:25.622Z,33.3
2023-02-23T04:51:30.193Z,34.3
2023-02-23T04:53:31.901Z,33.5
2023-02-23T04:55:33.645Z,34.5
2023-02-23T04:57:38.106Z,35.5
2023-02-23T05:01:41.701Z,36.7
2023-02-23T05:03:46.120Z,35.7
2023-02-23T05:05:47.889Z,36.1
2023-02-23T05:07:49.671Z,35.5
2023-02-23T05:09:54.153Z,38.5
2023-02-23T05:11:55.882Z,35.5
2023-02-23T05:13:57.682Z,33.8
2023-02-23T05:16:02.254Z,38.6
2023-02-23T05:18:03.915Z,35.5
2023-02-23T05:20:05.681Z,35.1
2023-02-23T05:22:16.253Z,32.4
2023-02-23T05:24:17.961Z,35.4
2023-02-23T05:26:19.732Z,38
2023-02-23T05:28:24.181Z,36.1
2023-02-23T05:30:26.078Z,40.1
2023-02-23T05:32:27.770Z,37.3
2023-02-23T05:34:32.195Z,38.9
2023-02-23T05:36:33.994Z,39.1
2023-02-23T05:38:35.624Z,38.5
2023-02-23T05:40:39.978Z,37.4
2023-02-23T05:46:47.681Z,36.4
2023-02-23T05:48:49.383Z,35.3
2023-02-23T05:50:51.065Z,36.7
2023-02-23T05:52:55.530Z,37.1
2023-02-23T05:54:57.319Z,39.1
2023-02-23T05:57:01.659Z,38.3
2023-02-23T05:59:03.572Z,35
2023-02-23T06:01:05.334Z,39.6
2023-02-23T06:03:07.102Z,37.7
2023-02-23T06:07:13.344Z,37.7
2023-02-23T06:09:15.102Z,38
2023-02-23T06:11:19.917Z,36.1
2023-02-23T06:13:21.511Z,36.9
2023-02-23T06:15:23.089Z,41.4
2023-02-23T06:17:27.542Z,37.9
2023-02-23T06:21:31.096Z,38.7
2023-02-23T06:23:35.560Z,38
2023-02-23T06:25:37.330Z,37.8
2023-02-23T06:27:39.128Z,41
2023-02-23T06:31:45.460Z,38.9
2023-02-23T06:33:47.131Z,38.6
2023-02-23T06:35:51.573Z,36.8
2023-02-23T06:45:01.734Z,33.7
2023-02-23T06:47:03.513Z,35.6
2023-02-23T06:49:05.275Z,36.9
2023-02-23T06:51:09.726Z,37.7
2023-02-23T06:53:11.496Z,35.5
2023-02-23T06:55:13.268Z,36.4
2023-02-23T06:57:17.707Z,37.8
2023-02-23T06:59:19.475Z,39.1
2023-02-23T07:01:21.416Z,37.4
2023-02-23T07:05:27.467Z,34.2
2023-02-23T07:07:29.219Z,33.7
2023-02-23T07:09:33.666Z,35.1
2023-02-23T07:13:37.205Z,33.6
2023-02-23T07:17:43.445Z,37.3
2023-02-23T07:19:45.188Z,33.8
2023-02-23T07:21:49.628Z,33.8
2023-02-23T07:25:53.196Z,36.7
2023-02-23T07:27:57.586Z,35.5
2023-02-23T07:29:59.348Z,36.2
2023-02-23T07:32:01.220Z,35.7
2023-02-23T07:34:05.541Z,35.7
2023-02-23T07:38:08.859Z,35.1
2023-02-23T07:44:16.748Z,33.1
2023-02-23T07:46:21.231Z,36.8
2023-02-23T07:48:22.970Z,35.3
2023-02-23T07:50:24.725Z,35.1
2023-02-23T07:52:29.180Z,32.9
2023-02-23T07:54:30.935Z,34.2
2023-02-23T07:56:32.700Z,35.3
2023-02-23T07:58:37.138Z,33.1
2023-02-23T08:00:38.920Z,34.4
2023-02-23T08:02:40.686Z,35.5
2023-02-23T08:04:45.162Z,33.6
2023-02-23T08:06:46.882Z,35.6
2023-02-23T08:08:48.647Z,35.7
2023-02-23T08:10:53.086Z,37.5
2023-02-23T08:12:54.948Z,35.6
2023-02-23T08:14:56.658Z,35.2
2023-02-23T08:17:01.159Z,34.2
2023-02-23T08:19:02.869Z,34
2023-02-23T08:21:04.612Z,33.2
2023-02-23T08:23:09.067Z,35.1
2023-02-23T08:25:10.825Z,35.8
2023-02-23T08:27:12.647Z,36.3
2023-02-23T08:29:17.052Z,35.1
2023-02-23T08:31:19.288Z,33.2
2023-02-23T08:33:20.482Z,34.9
2023-02-23T08:35:24.960Z,32.6
2023-02-23T08:37:26.767Z,35
2023-02-23T08:39:28.488Z,33.4
2023-02-23T08:56:38.089Z,37.6
2023-02-23T08:58:39.873Z,33
2023-02-23T09:00:44.204Z,31.8
2023-02-23T09:04:48.139Z,32.6
2023-02-23T09:06:52.595Z,34.7
2023-02-23T09:08:54.241Z,34.9
2023-02-23T09:13:00.490Z,34
2023-02-23T09:17:04.072Z,36.7
2023-02-23T09:19:08.532Z,35.2
2023-02-23T09:23:12.073Z,33.8
2023-02-23T09:27:18.318Z,34.9
2023-02-23T09:29:20.103Z,35.2
2023-02-23T09:31:24.800Z,33.8
2023-02-23T09:33:26.362Z,34.4
2023-02-23T09:35:28.143Z,38.3
2023-02-23T09:37:32.606Z,32.1
2023-02-23T09:39:38.568Z,37.1
2023-02-23T09:41:36.000Z,35
2023-02-23T09:43:40.469Z,33.8
2023-02-23T09:45:42.407Z,35.7
2023-02-23T09:47:44.063Z,35.1
2023-02-23T09:49:48.547Z,32.6
2023-02-23T09:53:52.146Z,33.2
2023-02-23T09:55:56.628Z,35.9
2023-02-23T09:57:58.402Z,33.6
2023-02-23T10:00:00.217Z,33.1
2023-02-23T10:04:06.482Z,35
2023-02-23T10:06:08.315Z,31.1
2023-02-23T10:19:11.847Z,32.4
2023-02-23T10:33:32.516Z,29.2
2023-02-23T10:35:34.328Z,27.6
2023-02-23T10:39:40.619Z,26.8
2023-02-23T10:41:42.428Z,26.9
2023-02-23T10:43:44.247Z,26.4
2023-02-23T10:45:48.717Z,25.8
2023-02-23T10:47:50.544Z,25.9
2023-02-23T10:49:52.258Z,25.4
2023-02-23T10:56:00.291Z,26.8
2023-02-23T10:58:04.805Z,24.3
2023-02-23T11:04:12.639Z,25
2023-02-23T11:06:14.329Z,21.5
2023-02-23T11:08:16.251Z,22.4
2023-02-23T11:10:20.470Z,23.2
2023-02-23T11:12:22.475Z,23.2
2023-02-23T11:14:24.242Z,23.2
2023-02-23T11:16:28.998Z,23.3
2023-02-23T11:18:30.026Z,22.4
2023-02-23T11:20:31.735Z,22.5
2023-02-23T11:22:36.167Z,25.6
2023-02-23T11:24:37.871Z,22.6
2023-02-23T11:26:39.737Z,22.8
2023-02-23T11:28:44.198Z,22.9
2023-02-23T11:32:47.693Z,20.3
2023-02-23T11:34:52.014Z,21.8
2023-02-23T11:36:53.731Z,24.1
2023-02-23T11:38:55.442Z,21.5
2023-02-23T11:40:59.847Z,22.6
2023-02-23T11:45:03.465Z,22.7
2023-02-23T11:52:15.908Z,23.8
2023-02-23T11:54:17.731Z,21
2023-02-23T11:56:22.350Z,18.5
2023-02-23T11:58:24.029Z,20
2023-02-23T12:07:38.861Z,21.5
2023-02-23T12:09:40.631Z,20.6
2023-02-23T12:11:46.604Z,20.8
2023-02-23T12:13:46.815Z,17
2023-02-23T12:19:54.723Z,21.2
2023-02-23T12:21:56.381Z,20.8
2023-02-23T12:24:00.792Z,19.9
2023-02-23T12:26:02.483Z,18.4
2023-02-23T12:32:10.381Z,21
2023-02-23T12:34:11.940Z,20.5
2023-02-23T12:39:22.049Z,19.8
2023-02-23T12:41:23.864Z,19.7
2023-02-23T12:43:25.641Z,21.3
2023-02-23T12:45:30.146Z,21.7
2023-02-23T12:47:31.833Z,20.4
2023-02-23T12:49:33.611Z,19.5
2023-02-23T13:00:52.913Z,18.1
2023-02-23T13:07:00.969Z,17.4
2023-02-23T13:11:04.550Z,19
2023-02-23T13:18:19.839Z,18.6
2023-02-23T13:20:21.642Z,17.1
2023-02-23T13:27:31.013Z,16
2023-02-23T13:29:32.740Z,17.1
2023-02-23T13:33:44.339Z,15.5
2023-02-23T13:35:40.528Z,14.4
2023-02-23T13:37:44.888Z,14.6
2023-02-23T13:39:46.618Z,15
2023-02-23T13:41:48.334Z,17.3
2023-02-23T13:43:52.735Z,16.1
2023-02-23T13:45:54.490Z,15.6
2023-02-23T13:47:56.148Z,15.4
2023-02-23T13:50:00.512Z,15.4
2023-02-23T13:54:03.952Z,15.5
2023-02-23T13:56:08.334Z,15.8
2023-02-23T13:58:10.085Z,16.5
2023-02-23T14:00:11.777Z,14
2023-02-23T14:24:36.295Z,11.6
2023-02-23T14:26:38.001Z,11.5
2023-02-23T14:28:39.760Z,11.3
2023-02-23T14:30:44.344Z,13.7
2023-02-23T14:34:47.811Z,11.5
2023-02-23T14:36:52.362Z,12.2
2023-02-23T14:38:54.099Z,10.9
2023-02-23T14:40:55.937Z,12.8
2023-02-23T14:43:00.378Z,12.7
2023-02-23T14:49:08.217Z,10.9
2023-02-23T14:51:27.866Z,10.4
2023-02-23T14:53:11.627Z,11.9
2023-02-23T14:55:16.013Z,11.2
2023-02-23T14:59:19.516Z,12.3
2023-02-23T15:05:27.511Z,11.8
2023-02-23T15:07:32.023Z,12.5
2023-02-23T15:09:33.693Z,13.7
2023-02-23T15:11:35.448Z,12.3
2023-02-23T15:13:39.861Z,11.4
2023-02-23T15:15:41.675Z,12.8
2023-02-23T15:19:47.848Z,14.4
2023-02-23T15:21:49.553Z,12.9
2023-02-23T15:25:55.873Z,12.9
2023-02-23T15:27:57.574Z,15
2023-02-23T15:29:59.352Z,13.2
2023-02-23T15:41:20.205Z,16.8
2023-02-23T15:51:31.521Z,15.2
2023-02-23T15:53:35.853Z,16.5
2023-02-23T15:57:39.264Z,17.5
2023-02-23T15:59:43.653Z,18.6
2023-02-23T16:01:45.472Z,19
2023-02-23T16:03:47.261Z,18.2
2023-02-23T16:05:51.744Z,20.3
2023-02-23T16:09:55.402Z,20.5
2023-02-23T16:20:57.090Z,2.9
2023-02-23T16:22:58.878Z,2.6
2023-02-23T16:29:06.943Z,2.1
2023-02-23T16:31:11.462Z,2.2
2023-02-23T16:33:13.229Z,3.4
2023-02-23T16:35:16.659Z,3.1
2023-02-23T16:39:22.929Z,4.1
2023-02-23T16:41:24.676Z,2.2
2023-02-23T16:50:24.544Z,4
2023-02-23T16:56:38.560Z,3.6
2023-02-23T17:02:46.554Z,2.4
2023-02-23T17:12:57.968Z,4.3
2023-02-23T17:32:09.400Z,5.9
2023-02-23T17:34:13.704Z,3.8
2023-02-23T17:38:17.187Z,3.6
2023-02-23T17:40:21.653Z,2.9
2023-02-23T17:52:37.694Z,2.8
2023-02-23T17:54:39.475Z,5.3
2023-02-23T18:10:33.016Z,3.8
2023-02-23T18:12:34.749Z,3.3
2023-02-23T18:14:39.183Z,2.6
2023-02-23T18:24:50.405Z,3.1
2023-02-23T18:26:54.733Z,3.4
2023-02-23T18:30:58.314Z,2.7
2023-02-23T18:33:02.768Z,3.1
2023-02-23T18:37:06.197Z,2.8
2023-02-23T18:39:10.717Z,4.3
2023-02-23T18:41:12.390Z,2.7
2023-02-23T18:45:18.575Z,3.5
2023-02-23T18:47:20.308Z,3.5
2023-02-23T18:51:26.495Z,3.9
2023-02-23T18:53:28.233Z,3.2
2023-02-23T18:55:29.975Z,4.3
2023-02-23T18:57:34.398Z,2.8
2023-02-23T19:01:37.836Z,3.2
2023-02-23T19:03:42.263Z,4.2
2023-02-23T19:05:43.986Z,4.7
2023-02-23T19:07:45.718Z,4.3
2023-02-23T19:09:50.107Z,5.1
2023-02-23T19:13:53.584Z,4.5
2023-02-23T19:15:58.000Z,3.8
2023-02-23T19:17:59.715Z,6.1
2023-02-23T19:25:06.347Z,3.5
2023-02-23T19:29:09.801Z,3.6
2023-02-23T19:31:14.245Z,4
2023-02-23T19:33:16.019Z,4.5
2023-02-23T19:35:17.621Z,3.7
2023-02-23T19:44:17.075Z,4.5
2023-02-23T19:46:18.795Z,5.2
2023-02-23T19:48:20.500Z,4.9
2023-02-23T19:50:24.872Z,4.8
2023-02-23T19:52:26.415Z,5.1
2023-02-23T19:54:28.095Z,4.8
2023-02-23T19:58:34.208Z,4.6
2023-02-23T20:00:35.883Z,5.6
2023-02-23T20:02:38.453Z,4.3
2023-02-23T20:04:40.027Z,3.1
2023-02-23T20:06:41.769Z,4.1
2023-02-23T20:10:47.781Z,3.9
2023-02-23T20:12:49.464Z,4.5
2023-02-23T20:14:53.836Z,3.7
2023-02-23T20:16:55.621Z,3.2
2023-02-23T20:18:57.195Z,3.8
2023-02-23T20:21:01.554Z,3.6
2023-02-23T20:23:03.258Z,5.1
2023-02-23T20:27:09.287Z,7.2
2023-02-23T20:31:12.820Z,9.3
2023-02-23T20:33:16.992Z,8.5
2023-02-23T20:37:20.350Z,7
2023-02-23T20:39:24.721Z,4.7
2023-02-23T20:43:28.082Z,5
2023-02-23T20:54:50.346Z,3.4
2023-02-23T20:58:53.679Z,3.7
2023-02-23T21:00:58.023Z,3.7
2023-02-23T21:02:59.647Z,3.4
2023-02-23T21:18:55.428Z,3.7
2023-02-23T21:20:57.087Z,3.5
2023-02-23T21:30:48.620Z,4.2
2023-02-23T21:32:50.321Z,4.5
2023-02-23T21:36:56.100Z,4.3
2023-02-23T21:41:02.033Z,5.8
2023-02-23T21:45:05.309Z,4.1
2023-02-23T21:54:04.380Z,4.9
2023-02-23T21:56:05.999Z,8.1
2023-02-23T22:00:11.925Z,6.1
2023-02-23T22:02:13.540Z,5
2023-02-23T22:06:19.455Z,5.2
2023-02-23T22:08:21.101Z,5.1
2023-02-23T22:10:22.722Z,3.5
2023-02-23T22:12:27.007Z,4.8
2023-02-23T22:14:28.636Z,3.7
2023-02-23T22:16:30.335Z,4.2
2023-02-23T22:20:36.183Z,2.8
2023-02-23T22:22:37.794Z,3.2
2023-02-23T22:24:42.098Z,3.4
2023-02-23T22:28:45.315Z,2.5
2023-02-23T22:32:51.672Z,3.5
2023-02-23T22:34:52.858Z,3.1
2023-02-23T22:40:04.567Z,1.9
2023-02-23T22:42:06.248Z,4.1
2023-02-23T22:44:07.757Z,3.4
2023-02-23T22:53:06.745Z,3.3
2023-02-23T22:57:09.969Z,5.3
2023-02-23T22:59:14.234Z,3.1
2023-02-23T23:05:21.677Z,2.2
2023-02-23T23:07:23.276Z,3
2023-02-23T23:09:24.899Z,5.2
2023-02-23T23:11:29.117Z,2.7
2023-02-23T23:13:30.721Z,2.8
2023-02-23T23:15:32.367Z,4.2
2023-02-23T23:17:36.613Z,2.8
2023-02-23T23:19:38.188Z,3
2023-02-23T23:21:39.771Z,2.7
2023-02-23T23:23:44.006Z,2.7
2023-02-23T23:27:47.193Z,2
2023-02-23T23:29:51.468Z,2.9
2023-02-23T23:35:58.861Z,2
2023-02-23T23:45:15.212Z,2.6
2023-02-23T23:47:16.782Z,2.6
2023-02-23T23:49:18.342Z,4.1
